sensor_id;sensor_type;location;lat;lon;timestamp;P1;durP1;ratioP1;P2;durP2;ratioP2
48215;SDS011;34005;48.844;10.098;2024-03-08T00:00:01;22.15;;;14.27;;
48215;SDS011;34005;48.844;10.098;2024-03-08T00:02:36;20.95;;;13.57;;
48215;SDS011;34005;48.844;10.098;2024-03-08T00:05:06;20.30;;;13.38;;
48215;SDS011;34005;48.844;10.098;2024-03-08T00:07:35;21.95;;;14.38;;
48215;SDS011;34005;48.844;10.098;2024-03-08T00:10:02;19.45;;;13.65;;
48215;SDS011;34005;48.844;10.098;2024-03-08T00:12:30;23.90;;;14.32;;
48215;SDS011;34005;48.844;10.098;2024-03-08T00:14:58;22.02;;;13.80;;
48215;SDS011;34005;48.844;10.098;2024-03-08T00:17:25;24.98;;;14.48;;
48215;SDS011;34005;48.844;10.098;2024-03-08T00:19:54;19.55;;;12.10;;
48215;SDS011;34005;48.844;10.098;2024-03-08T00:22:23;24.27;;;14.93;;
48215;SDS011;34005;48.844;10.098;2024-03-08T00:24:51;20.05;;;12.68;;
48215;SDS011;34005;48.844;10.098;2024-03-08T00:27:18;19.85;;;13.05;;
48215;SDS011;34005;48.844;10.098;2024-03-08T00:29:47;21.70;;;13.32;;
48215;SDS011;34005;48.844;10.098;2024-03-08T00:32:15;19.63;;;13.63;;
48215;SDS011;34005;48.844;10.098;2024-03-08T00:34:43;20.23;;;13.15;;
48215;SDS011;34005;48.844;10.098;2024-03-08T00:37:10;19.52;;;12.20;;
48215;SDS011;34005;48.844;10.098;2024-03-08T00:39:39;22.10;;;14.25;;
48215;SDS011;34005;48.844;10.098;2024-03-08T00:42:07;21.80;;;13.73;;
48215;SDS011;34005;48.844;10.098;2024-03-08T00:44:34;20.08;;;12.80;;
48215;SDS011;34005;48.844;10.098;2024-03-08T00:47:02;22.70;;;13.38;;
48215;SDS011;34005;48.844;10.098;2024-03-08T00:49:30;19.35;;;12.60;;
48215;SDS011;34005;48.844;10.098;2024-03-08T00:51:58;21.88;;;13.80;;
48215;SDS011;34005;48.844;10.098;2024-03-08T00:54:26;23.08;;;14.40;;
48215;SDS011;34005;48.844;10.098;2024-03-08T00:56:54;21.65;;;14.27;;
48215;SDS011;34005;48.844;10.098;2024-03-08T00:59:22;21.48;;;13.77;;
48215;SDS011;34005;48.844;10.098;2024-03-08T01:01:50;20.88;;;13.27;;
48215;SDS011;34005;48.844;10.098;2024-03-08T01:04:17;21.50;;;13.60;;
48215;SDS011;34005;48.844;10.098;2024-03-08T01:06:46;22.38;;;13.82;;
48215;SDS011;34005;48.844;10.098;2024-03-08T01:09:14;20.55;;;13.18;;
48215;SDS011;34005;48.844;10.098;2024-03-08T01:11:43;23.45;;;12.88;;
48215;SDS011;34005;48.844;10.098;2024-03-08T01:14:12;20.98;;;13.63;;
48215;SDS011;34005;48.844;10.098;2024-03-08T01:16:40;21.85;;;13.52;;
48215;SDS011;34005;48.844;10.098;2024-03-08T01:19:07;19.63;;;12.98;;
48215;SDS011;34005;48.844;10.098;2024-03-08T01:21:35;22.83;;;13.48;;
48215;SDS011;34005;48.844;10.098;2024-03-08T01:24:03;22.23;;;14.02;;
48215;SDS011;34005;48.844;10.098;2024-03-08T01:26:31;19.38;;;13.18;;
48215;SDS011;34005;48.844;10.098;2024-03-08T01:29:00;23.23;;;13.80;;
48215;SDS011;34005;48.844;10.098;2024-03-08T01:31:30;19.30;;;13.35;;
48215;SDS011;34005;48.844;10.098;2024-03-08T01:33:58;21.40;;;14.02;;
48215;SDS011;34005;48.844;10.098;2024-03-08T01:36:26;21.10;;;13.75;;
48215;SDS011;34005;48.844;10.098;2024-03-08T01:38:54;20.90;;;13.68;;
48215;SDS011;34005;48.844;10.098;2024-03-08T01:41:21;23.95;;;14.27;;
48215;SDS011;34005;48.844;10.098;2024-03-08T01:43:49;26.42;;;15.45;;
48215;SDS011;34005;48.844;10.098;2024-03-08T06:45:33;21.92;;;14.65;;
48215;SDS011;34005;48.844;10.098;2024-03-08T06:48:03;23.85;;;15.20;;
48215;SDS011;34005;48.844;10.098;2024-03-08T06:50:37;24.80;;;15.10;;
48215;SDS011;34005;48.844;10.098;2024-03-08T06:53:04;29.80;;;16.85;;
48215;SDS011;34005;48.844;10.098;2024-03-08T06:55:32;26.67;;;16.63;;
48215;SDS011;34005;48.844;10.098;2024-03-08T06:58:00;25.90;;;16.55;;
48215;SDS011;34005;48.844;10.098;2024-03-08T07:00:27;27.80;;;16.95;;
48215;SDS011;34005;48.844;10.098;2024-03-08T07:02:58;25.48;;;15.93;;
48215;SDS011;34005;48.844;10.098;2024-03-08T07:05:27;24.58;;;16.08;;
48215;SDS011;34005;48.844;10.098;2024-03-08T07:07:57;28.10;;;16.40;;
48215;SDS011;34005;48.844;10.098;2024-03-08T07:10:25;24.45;;;14.55;;
48215;SDS011;34005;48.844;10.098;2024-03-08T07:12:52;27.20;;;15.48;;
48215;SDS011;34005;48.844;10.098;2024-03-08T07:15:20;28.17;;;16.05;;
48215;SDS011;34005;48.844;10.098;2024-03-08T07:17:49;28.15;;;17.17;;
48215;SDS011;34005;48.844;10.098;2024-03-08T07:20:20;25.10;;;16.13;;
48215;SDS011;34005;48.844;10.098;2024-03-08T07:22:48;22.85;;;15.55;;
48215;SDS011;34005;48.844;10.098;2024-03-08T07:25:17;26.70;;;16.25;;
48215;SDS011;34005;48.844;10.098;2024-03-08T07:27:49;26.30;;;15.68;;
48215;SDS011;34005;48.844;10.098;2024-03-08T07:30:17;33.08;;;17.48;;
48215;SDS011;34005;48.844;10.098;2024-03-08T07:32:59;24.15;;;16.00;;
48215;SDS011;34005;48.844;10.098;2024-03-08T07:35:30;27.95;;;16.77;;
48215;SDS011;34005;48.844;10.098;2024-03-08T07:37:58;25.58;;;16.30;;
48215;SDS011;34005;48.844;10.098;2024-03-08T07:40:26;27.92;;;17.08;;
48215;SDS011;34005;48.844;10.098;2024-03-08T07:42:54;27.08;;;17.27;;
48215;SDS011;34005;48.844;10.098;2024-03-08T07:45:22;27.27;;;16.65;;
48215;SDS011;34005;48.844;10.098;2024-03-08T07:47:50;30.27;;;17.27;;
48215;SDS011;34005;48.844;10.098;2024-03-08T07:50:19;27.38;;;16.50;;
48215;SDS011;34005;48.844;10.098;2024-03-08T07:52:50;31.05;;;17.85;;
48215;SDS011;34005;48.844;10.098;2024-03-08T07:55:17;29.08;;;17.20;;
48215;SDS011;34005;48.844;10.098;2024-03-08T07:57:45;29.40;;;17.10;;
48215;SDS011;34005;48.844;10.098;2024-03-08T08:00:14;30.23;;;17.65;;
48215;SDS011;34005;48.844;10.098;2024-03-08T08:02:45;30.00;;;17.48;;
48215;SDS011;34005;48.844;10.098;2024-03-08T08:05:12;30.80;;;19.00;;
48215;SDS011;34005;48.844;10.098;2024-03-08T08:07:43;30.20;;;18.25;;
48215;SDS011;34005;48.844;10.098;2024-03-08T08:10:15;29.70;;;17.08;;
48215;SDS011;34005;48.844;10.098;2024-03-08T08:12:45;32.15;;;17.42;;
48215;SDS011;34005;48.844;10.098;2024-03-08T08:15:13;30.20;;;17.20;;
48215;SDS011;34005;48.844;10.098;2024-03-08T08:17:41;30.08;;;16.90;;
48215;SDS011;34005;48.844;10.098;2024-03-08T08:20:10;29.50;;;17.67;;
48215;SDS011;34005;48.844;10.098;2024-03-08T08:22:37;33.88;;;18.38;;
48215;SDS011;34005;48.844;10.098;2024-03-08T08:25:07;29.42;;;17.80;;
48215;SDS011;34005;48.844;10.098;2024-03-08T08:27:36;34.58;;;18.42;;
48215;SDS011;34005;48.844;10.098;2024-03-08T08:30:04;31.25;;;17.40;;
48215;SDS011;34005;48.844;10.098;2024-03-08T08:32:34;29.77;;;17.05;;
48215;SDS011;34005;48.844;10.098;2024-03-08T08:35:03;30.25;;;17.00;;
48215;SDS011;34005;48.844;10.098;2024-03-08T08:37:32;32.03;;;17.67;;
48215;SDS011;34005;48.844;10.098;2024-03-08T08:40:00;32.47;;;17.90;;
48215;SDS011;34005;48.844;10.098;2024-03-08T08:42:31;27.42;;;17.50;;
48215;SDS011;34005;48.844;10.098;2024-03-08T08:45:00;29.50;;;18.55;;
48215;SDS011;34005;48.844;10.098;2024-03-08T08:47:41;30.55;;;19.05;;
48215;SDS011;34005;48.844;10.098;2024-03-08T08:50:09;34.13;;;18.45;;
48215;SDS011;34005;48.844;10.098;2024-03-08T08:52:38;30.33;;;18.45;;
48215;SDS011;34005;48.844;10.098;2024-03-08T08:55:06;31.38;;;17.10;;
48215;SDS011;34005;48.844;10.098;2024-03-08T08:57:35;31.17;;;17.98;;
48215;SDS011;34005;48.844;10.098;2024-03-08T09:00:04;32.58;;;19.08;;
48215;SDS011;34005;48.844;10.098;2024-03-08T09:02:34;33.17;;;18.75;;
48215;SDS011;34005;48.844;10.098;2024-03-08T09:05:03;29.80;;;17.20;;
48215;SDS011;34005;48.844;10.098;2024-03-08T09:07:31;32.53;;;18.33;;
48215;SDS011;34005;48.844;10.098;2024-03-08T09:10:00;30.77;;;18.67;;
48215;SDS011;34005;48.844;10.098;2024-03-08T09:15:12;31.83;;;18.13;;
48215;SDS011;34005;48.844;10.098;2024-03-08T09:17:39;32.00;;;19.23;;
48215;SDS011;34005;48.844;10.098;2024-03-08T09:20:09;30.65;;;18.33;;
48215;SDS011;34005;48.844;10.098;2024-03-08T09:22:40;33.53;;;18.63;;
48215;SDS011;34005;48.844;10.098;2024-03-08T09:25:11;29.75;;;17.92;;
48215;SDS011;34005;48.844;10.098;2024-03-08T09:27:38;32.00;;;19.30;;
48215;SDS011;34005;48.844;10.098;2024-03-08T09:30:07;31.73;;;18.52;;
48215;SDS011;34005;48.844;10.098;2024-03-08T09:32:37;31.67;;;18.45;;
48215;SDS011;34005;48.844;10.098;2024-03-08T09:35:05;32.28;;;19.70;;
48215;SDS011;34005;48.844;10.098;2024-03-08T09:37:34;33.65;;;19.25;;
48215;SDS011;34005;48.844;10.098;2024-03-08T09:40:02;32.85;;;19.10;;
48215;SDS011;34005;48.844;10.098;2024-03-08T09:42:35;29.63;;;18.27;;
48215;SDS011;34005;48.844;10.098;2024-03-08T09:45:05;32.88;;;18.50;;
48215;SDS011;34005;48.844;10.098;2024-03-08T09:47:38;29.05;;;17.70;;
48215;SDS011;34005;48.844;10.098;2024-03-08T09:50:08;31.70;;;18.10;;
48215;SDS011;34005;48.844;10.098;2024-03-08T09:52:36;31.58;;;19.52;;
48215;SDS011;34005;48.844;10.098;2024-03-08T09:55:04;30.40;;;18.00;;
48215;SDS011;34005;48.844;10.098;2024-03-08T09:57:33;34.55;;;19.25;;
48215;SDS011;34005;48.844;10.098;2024-03-08T10:00:03;32.13;;;19.58;;
48215;SDS011;34005;48.844;10.098;2024-03-08T10:02:46;32.35;;;19.42;;
48215;SDS011;34005;48.844;10.098;2024-03-08T10:05:13;30.60;;;19.33;;
48215;SDS011;34005;48.844;10.098;2024-03-08T10:07:41;32.70;;;20.08;;
48215;SDS011;34005;48.844;10.098;2024-03-08T10:10:09;34.60;;;20.55;;
48215;SDS011;34005;48.844;10.098;2024-03-08T10:12:38;33.30;;;20.35;;
48215;SDS011;34005;48.844;10.098;2024-03-08T10:15:06;32.08;;;18.08;;
48215;SDS011;34005;48.844;10.098;2024-03-08T10:17:35;27.65;;;18.10;;
48215;SDS011;34005;48.844;10.098;2024-03-08T10:20:05;32.50;;;19.55;;
48215;SDS011;34005;48.844;10.098;2024-03-08T10:22:42;33.38;;;18.55;;
48215;SDS011;34005;48.844;10.098;2024-03-08T10:25:23;30.13;;;18.23;;
48215;SDS011;34005;48.844;10.098;2024-03-08T10:27:51;28.17;;;17.90;;
48215;SDS011;34005;48.844;10.098;2024-03-08T10:30:19;32.53;;;18.45;;
48215;SDS011;34005;48.844;10.098;2024-03-08T10:32:47;27.95;;;18.20;;
48215;SDS011;34005;48.844;10.098;2024-03-08T10:35:17;30.55;;;17.63;;
48215;SDS011;34005;48.844;10.098;2024-03-08T10:37:47;27.88;;;18.63;;
48215;SDS011;34005;48.844;10.098;2024-03-08T10:40:25;30.02;;;18.35;;
48215;SDS011;34005;48.844;10.098;2024-03-08T10:42:54;29.23;;;18.98;;
48215;SDS011;34005;48.844;10.098;2024-03-08T10:45:31;32.42;;;18.55;;
48215;SDS011;34005;48.844;10.098;2024-03-08T10:48:04;27.95;;;16.75;;
48215;SDS011;34005;48.844;10.098;2024-03-08T10:50:55;29.67;;;18.23;;
48215;SDS011;34005;48.844;10.098;2024-03-08T10:53:24;31.95;;;19.17;;
48215;SDS011;34005;48.844;10.098;2024-03-08T10:55:55;30.77;;;18.45;;
48215;SDS011;34005;48.844;10.098;2024-03-08T10:58:24;27.60;;;19.50;;
48215;SDS011;34005;48.844;10.098;2024-03-08T11:00:53;30.27;;;18.17;;
48215;SDS011;34005;48.844;10.098;2024-03-08T11:06:17;30.63;;;19.08;;
48215;SDS011;34005;48.844;10.098;2024-03-08T11:08:49;24.27;;;16.60;;
48215;SDS011;34005;48.844;10.098;2024-03-08T11:11:23;26.30;;;17.25;;
48215;SDS011;34005;48.844;10.098;2024-03-08T11:14:00;28.95;;;17.58;;
48215;SDS011;34005;48.844;10.098;2024-03-08T11:19:24;25.05;;;16.92;;
48215;SDS011;34005;48.844;10.098;2024-03-08T11:21:59;28.85;;;18.38;;
48215;SDS011;34005;48.844;10.098;2024-03-08T11:24:36;26.38;;;17.13;;
48215;SDS011;34005;48.844;10.098;2024-03-08T11:27:06;28.05;;;18.30;;
48215;SDS011;34005;48.844;10.098;2024-03-08T11:29:36;26.30;;;19.02;;
48215;SDS011;34005;48.844;10.098;2024-03-08T11:32:04;26.80;;;18.13;;
48215;SDS011;34005;48.844;10.098;2024-03-08T11:34:32;28.58;;;18.58;;
48215;SDS011;34005;48.844;10.098;2024-03-08T11:37:01;27.25;;;18.45;;
48215;SDS011;34005;48.844;10.098;2024-03-08T11:39:31;25.23;;;17.52;;
48215;SDS011;34005;48.844;10.098;2024-03-08T11:41:59;28.33;;;17.80;;
48215;SDS011;34005;48.844;10.098;2024-03-08T11:44:27;24.27;;;17.33;;
48215;SDS011;34005;48.844;10.098;2024-03-08T11:46:54;23.38;;;16.73;;
48215;SDS011;34005;48.844;10.098;2024-03-08T11:49:22;22.33;;;16.33;;
48215;SDS011;34005;48.844;10.098;2024-03-08T11:51:51;23.90;;;16.50;;
48215;SDS011;34005;48.844;10.098;2024-03-08T11:54:21;25.45;;;17.27;;
48215;SDS011;34005;48.844;10.098;2024-03-08T11:56:51;27.73;;;17.90;;
48215;SDS011;34005;48.844;10.098;2024-03-08T11:59:19;23.60;;;16.48;;
48215;SDS011;34005;48.844;10.098;2024-03-08T12:01:59;23.35;;;15.80;;
48215;SDS011;34005;48.844;10.098;2024-03-08T12:04:29;26.42;;;16.65;;
48215;SDS011;34005;48.844;10.098;2024-03-08T12:06:59;23.98;;;17.00;;
48215;SDS011;34005;48.844;10.098;2024-03-08T12:09:29;24.08;;;17.85;;
48215;SDS011;34005;48.844;10.098;2024-03-08T12:11:58;22.98;;;17.08;;
48215;SDS011;34005;48.844;10.098;2024-03-08T12:14:25;23.80;;;17.20;;
48215;SDS011;34005;48.844;10.098;2024-03-08T12:16:53;25.23;;;17.35;;
48215;SDS011;34005;48.844;10.098;2024-03-08T12:19:21;21.08;;;16.27;;
48215;SDS011;34005;48.844;10.098;2024-03-08T12:21:48;24.15;;;16.77;;
48215;SDS011;34005;48.844;10.098;2024-03-08T12:24:16;23.42;;;16.95;;
48215;SDS011;34005;48.844;10.098;2024-03-08T12:26:47;25.75;;;17.42;;
48215;SDS011;34005;48.844;10.098;2024-03-08T12:29:16;22.05;;;16.48;;
48215;SDS011;34005;48.844;10.098;2024-03-08T12:31:46;21.23;;;16.02;;
48215;SDS011;34005;48.844;10.098;2024-03-08T12:34:14;25.38;;;16.90;;
48215;SDS011;34005;48.844;10.098;2024-03-08T12:36:45;22.23;;;16.42;;
48215;SDS011;34005;48.844;10.098;2024-03-08T12:39:18;21.60;;;15.52;;
48215;SDS011;34005;48.844;10.098;2024-03-08T12:41:50;22.75;;;15.57;;
48215;SDS011;34005;48.844;10.098;2024-03-08T12:44:18;22.10;;;14.82;;
48215;SDS011;34005;48.844;10.098;2024-03-08T12:46:48;20.60;;;15.13;;
48215;SDS011;34005;48.844;10.098;2024-03-08T12:49:19;23.85;;;15.70;;
48215;SDS011;34005;48.844;10.098;2024-03-08T12:51:48;19.83;;;15.40;;
48215;SDS011;34005;48.844;10.098;2024-03-08T12:54:16;22.33;;;16.95;;
48215;SDS011;34005;48.844;10.098;2024-03-08T12:56:44;23.55;;;16.67;;
48215;SDS011;34005;48.844;10.098;2024-03-08T12:59:13;21.73;;;15.50;;
48215;SDS011;34005;48.844;10.098;2024-03-08T13:01:40;21.25;;;14.85;;
48215;SDS011;34005;48.844;10.098;2024-03-08T13:04:09;24.48;;;16.50;;
48215;SDS011;34005;48.844;10.098;2024-03-08T13:06:37;22.83;;;16.50;;
48215;SDS011;34005;48.844;10.098;2024-03-08T13:09:07;19.90;;;14.65;;
48215;SDS011;34005;48.844;10.098;2024-03-08T13:11:35;21.08;;;14.75;;
48215;SDS011;34005;48.844;10.098;2024-03-08T13:14:03;20.15;;;14.60;;
48215;SDS011;34005;48.844;10.098;2024-03-08T13:16:33;21.60;;;14.63;;
48215;SDS011;34005;48.844;10.098;2024-03-08T13:19:02;20.60;;;15.05;;
48215;SDS011;34005;48.844;10.098;2024-03-08T13:21:29;20.35;;;14.20;;
48215;SDS011;34005;48.844;10.098;2024-03-08T13:23:57;21.23;;;14.40;;
48215;SDS011;34005;48.844;10.098;2024-03-08T13:26:27;25.00;;;14.75;;
48215;SDS011;34005;48.844;10.098;2024-03-08T13:28:59;23.85;;;15.38;;
48215;SDS011;34005;48.844;10.098;2024-03-08T13:31:27;20.65;;;15.45;;
48215;SDS011;34005;48.844;10.098;2024-03-08T13:33:57;20.65;;;14.90;;
48215;SDS011;34005;48.844;10.098;2024-03-08T13:36:25;22.88;;;14.45;;
48215;SDS011;34005;48.844;10.098;2024-03-08T13:38:55;18.98;;;13.65;;
48215;SDS011;34005;48.844;10.098;2024-03-08T13:41:26;21.85;;;14.73;;
48215;SDS011;34005;48.844;10.098;2024-03-08T13:43:58;19.85;;;14.43;;
48215;SDS011;34005;48.844;10.098;2024-03-08T13:46:25;21.73;;;15.00;;
48215;SDS011;34005;48.844;10.098;2024-03-08T13:48:53;19.45;;;14.27;;
48215;SDS011;34005;48.844;10.098;2024-03-08T13:51:23;19.15;;;13.25;;
48215;SDS011;34005;48.844;10.098;2024-03-08T13:53:51;20.25;;;13.65;;
48215;SDS011;34005;48.844;10.098;2024-03-08T13:56:19;17.85;;;12.43;;
48215;SDS011;34005;48.844;10.098;2024-03-08T13:58:47;21.67;;;15.05;;
48215;SDS011;34005;48.844;10.098;2024-03-08T14:01:18;19.05;;;13.57;;
48215;SDS011;34005;48.844;10.098;2024-03-08T14:03:47;19.67;;;13.75;;
48215;SDS011;34005;48.844;10.098;2024-03-08T14:06:15;22.77;;;13.20;;
48215;SDS011;34005;48.844;10.098;2024-03-08T14:08:50;18.83;;;13.55;;
48215;SDS011;34005;48.844;10.098;2024-03-08T14:11:19;18.70;;;13.32;;
48215;SDS011;34005;48.844;10.098;2024-03-08T14:13:47;19.90;;;14.18;;
48215;SDS011;34005;48.844;10.098;2024-03-08T14:16:15;18.17;;;12.50;;
48215;SDS011;34005;48.844;10.098;2024-03-08T14:18:43;19.90;;;13.98;;
48215;SDS011;34005;48.844;10.098;2024-03-08T14:21:10;20.30;;;14.43;;
48215;SDS011;34005;48.844;10.098;2024-03-08T14:23:40;18.92;;;13.07;;
48215;SDS011;34005;48.844;10.098;2024-03-08T14:26:10;19.90;;;13.82;;
48215;SDS011;34005;48.844;10.098;2024-03-08T14:28:38;20.08;;;13.63;;
48215;SDS011;34005;48.844;10.098;2024-03-08T14:31:06;23.13;;;14.95;;
48215;SDS011;34005;48.844;10.098;2024-03-08T14:33:37;18.27;;;12.85;;
48215;SDS011;34005;48.844;10.098;2024-03-08T14:36:05;16.95;;;11.73;;
48215;SDS011;34005;48.844;10.098;2024-03-08T14:38:33;16.08;;;12.30;;
48215;SDS011;34005;48.844;10.098;2024-03-08T14:41:04;17.20;;;11.55;;
48215;SDS011;34005;48.844;10.098;2024-03-08T14:43:35;18.75;;;12.80;;
48215;SDS011;34005;48.844;10.098;2024-03-08T14:46:03;17.60;;;12.13;;
48215;SDS011;34005;48.844;10.098;2024-03-08T14:48:31;18.90;;;12.00;;
48215;SDS011;34005;48.844;10.098;2024-03-08T14:50:58;21.92;;;12.13;;
48215;SDS011;34005;48.844;10.098;2024-03-08T14:53:26;18.13;;;12.30;;
48215;SDS011;34005;48.844;10.098;2024-03-08T14:55:54;16.67;;;12.18;;
48215;SDS011;34005;48.844;10.098;2024-03-08T14:58:21;16.77;;;12.45;;
48215;SDS011;34005;48.844;10.098;2024-03-08T15:00:52;17.35;;;11.98;;
48215;SDS011;34005;48.844;10.098;2024-03-08T15:03:22;17.15;;;11.73;;
48215;SDS011;34005;48.844;10.098;2024-03-08T15:05:53;16.55;;;11.30;;
48215;SDS011;34005;48.844;10.098;2024-03-08T15:08:20;17.58;;;11.82;;
48215;SDS011;34005;48.844;10.098;2024-03-08T15:10:48;19.23;;;12.35;;
48215;SDS011;34005;48.844;10.098;2024-03-08T15:13:21;15.65;;;11.10;;
48215;SDS011;34005;48.844;10.098;2024-03-08T15:15:51;22.17;;;11.63;;
48215;SDS011;34005;48.844;10.098;2024-03-08T15:18:23;15.75;;;11.68;;
48215;SDS011;34005;48.844;10.098;2024-03-08T15:21:03;18.35;;;11.60;;
48215;SDS011;34005;48.844;10.098;2024-03-08T15:23:35;16.98;;;11.65;;
48215;SDS011;34005;48.844;10.098;2024-03-08T15:26:04;18.20;;;12.50;;
48215;SDS011;34005;48.844;10.098;2024-03-08T15:28:34;17.75;;;12.32;;
48215;SDS011;34005;48.844;10.098;2024-03-08T15:31:06;17.15;;;11.65;;
48215;SDS011;34005;48.844;10.098;2024-03-08T15:33:35;15.80;;;11.35;;
48215;SDS011;34005;48.844;10.098;2024-03-08T15:36:08;20.13;;;11.85;;
48215;SDS011;34005;48.844;10.098;2024-03-08T15:38:38;16.13;;;11.45;;
48215;SDS011;34005;48.844;10.098;2024-03-08T15:41:07;15.85;;;11.10;;
48215;SDS011;34005;48.844;10.098;2024-03-08T15:43:36;15.85;;;11.32;;
48215;SDS011;34005;48.844;10.098;2024-03-08T15:46:05;15.20;;;9.95;;
48215;SDS011;34005;48.844;10.098;2024-03-08T15:48:34;18.00;;;12.27;;
48215;SDS011;34005;48.844;10.098;2024-03-08T15:51:04;15.77;;;10.65;;
48215;SDS011;34005;48.844;10.098;2024-03-08T15:53:32;16.48;;;10.70;;
48215;SDS011;34005;48.844;10.098;2024-03-08T15:56:01;13.27;;;10.15;;
48215;SDS011;34005;48.844;10.098;2024-03-08T15:58:32;15.93;;;11.07;;
48215;SDS011;34005;48.844;10.098;2024-03-08T16:01:03;15.73;;;11.05;;
48215;SDS011;34005;48.844;10.098;2024-03-08T16:03:33;14.73;;;11.07;;
48215;SDS011;34005;48.844;10.098;2024-03-08T16:06:01;14.80;;;10.55;;
48215;SDS011;34005;48.844;10.098;2024-03-08T16:08:30;14.00;;;9.73;;
48215;SDS011;34005;48.844;10.098;2024-03-08T16:10:59;14.88;;;10.15;;
48215;SDS011;34005;48.844;10.098;2024-03-08T16:16:06;15.87;;;10.30;;
48215;SDS011;34005;48.844;10.098;2024-03-08T16:18:33;16.80;;;11.23;;
48215;SDS011;34005;48.844;10.098;2024-03-08T16:21:04;14.68;;;10.00;;
48215;SDS011;34005;48.844;10.098;2024-03-08T16:23:33;12.93;;;9.70;;
48215;SDS011;34005;48.844;10.098;2024-03-08T16:26:01;17.92;;;10.50;;
48215;SDS011;34005;48.844;10.098;2024-03-08T16:28:31;14.32;;;10.20;;
48215;SDS011;34005;48.844;10.098;2024-03-08T16:31:06;14.00;;;9.98;;
48215;SDS011;34005;48.844;10.098;2024-03-08T16:33:37;15.93;;;10.43;;
48215;SDS011;34005;48.844;10.098;2024-03-08T16:36:05;11.55;;;9.07;;
48215;SDS011;34005;48.844;10.098;2024-03-08T16:38:36;15.90;;;10.57;;
48215;SDS011;34005;48.844;10.098;2024-03-08T16:41:24;16.77;;;11.85;;
48215;SDS011;34005;48.844;10.098;2024-03-08T16:43:54;16.20;;;11.48;;
48215;SDS011;34005;48.844;10.098;2024-03-08T16:46:28;15.48;;;9.43;;
48215;SDS011;34005;48.844;10.098;2024-03-08T16:49:03;13.07;;;9.65;;
48215;SDS011;34005;48.844;10.098;2024-03-08T16:51:31;13.35;;;9.45;;
48215;SDS011;34005;48.844;10.098;2024-03-08T16:54:05;14.23;;;9.95;;
48215;SDS011;34005;48.844;10.098;2024-03-08T16:56:38;14.10;;;9.98;;
48215;SDS011;34005;48.844;10.098;2024-03-08T16:59:12;19.30;;;9.27;;
48215;SDS011;34005;48.844;10.098;2024-03-08T17:01:48;12.13;;;9.10;;
48215;SDS011;34005;48.844;10.098;2024-03-08T17:04:24;13.60;;;9.27;;
48215;SDS011;34005;48.844;10.098;2024-03-08T17:06:53;12.25;;;9.00;;
48215;SDS011;34005;48.844;10.098;2024-03-08T17:09:25;14.18;;;9.07;;
48215;SDS011;34005;48.844;10.098;2024-03-08T17:11:56;12.13;;;8.75;;
48215;SDS011;34005;48.844;10.098;2024-03-08T17:14:28;12.90;;;8.80;;
48215;SDS011;34005;48.844;10.098;2024-03-08T17:16:59;15.88;;;9.32;;
48215;SDS011;34005;48.844;10.098;2024-03-08T17:19:35;11.52;;;8.18;;
48215;SDS011;34005;48.844;10.098;2024-03-08T17:22:04;15.63;;;9.85;;
48215;SDS011;34005;48.844;10.098;2024-03-08T17:24:36;15.32;;;9.20;;
48215;SDS011;34005;48.844;10.098;2024-03-08T17:27:05;14.68;;;9.75;;
48215;SDS011;34005;48.844;10.098;2024-03-08T17:29:40;13.45;;;9.77;;
48215;SDS011;34005;48.844;10.098;2024-03-08T17:32:42;15.98;;;9.95;;
48215;SDS011;34005;48.844;10.098;2024-03-08T17:46:04;11.63;;;8.47;;
48215;SDS011;34005;48.844;10.098;2024-03-08T17:51:53;12.82;;;8.75;;
48215;SDS011;34005;48.844;10.098;2024-03-08T17:54:48;15.25;;;9.00;;
48215;SDS011;34005;48.844;10.098;2024-03-08T17:57:32;15.32;;;8.70;;
48215;SDS011;34005;48.844;10.098;2024-03-08T18:00:07;14.90;;;9.43;;
48215;SDS011;34005;48.844;10.098;2024-03-08T18:02:48;14.40;;;8.80;;
48215;SDS011;34005;48.844;10.098;2024-03-08T18:05:18;13.43;;;8.98;;
48215;SDS011;34005;48.844;10.098;2024-03-08T18:07:49;17.65;;;10.57;;
48215;SDS011;34005;48.844;10.098;2024-03-08T18:10:17;14.00;;;9.13;;
48215;SDS011;34005;48.844;10.098;2024-03-08T18:12:47;11.65;;;8.50;;
48215;SDS011;34005;48.844;10.098;2024-03-08T18:15:17;12.60;;;8.57;;
48215;SDS011;34005;48.844;10.098;2024-03-08T18:17:47;13.98;;;9.35;;
48215;SDS011;34005;48.844;10.098;2024-03-08T18:20:19;13.75;;;8.27;;
48215;SDS011;34005;48.844;10.098;2024-03-08T18:22:52;14.60;;;7.95;;
48215;SDS011;34005;48.844;10.098;2024-03-08T18:25:20;11.27;;;7.82;;
48215;SDS011;34005;48.844;10.098;2024-03-08T18:27:50;12.57;;;8.27;;
48215;SDS011;34005;48.844;10.098;2024-03-08T18:30:17;11.07;;;7.95;;
48215;SDS011;34005;48.844;10.098;2024-03-08T18:32:46;11.95;;;8.77;;
48215;SDS011;34005;48.844;10.098;2024-03-08T18:35:15;15.45;;;8.73;;
48215;SDS011;34005;48.844;10.098;2024-03-08T18:37:47;12.35;;;7.68;;
48215;SDS011;34005;48.844;10.098;2024-03-08T18:40:16;13.00;;;8.13;;
48215;SDS011;34005;48.844;10.098;2024-03-08T18:42:51;12.20;;;8.15;;
48215;SDS011;34005;48.844;10.098;2024-03-08T18:45:25;10.88;;;7.70;;
48215;SDS011;34005;48.844;10.098;2024-03-08T18:48:00;11.65;;;8.10;;
48215;SDS011;34005;48.844;10.098;2024-03-08T18:50:35;13.35;;;7.45;;
48215;SDS011;34005;48.844;10.098;2024-03-08T18:53:11;11.25;;;7.35;;
48215;SDS011;34005;48.844;10.098;2024-03-08T18:55:47;12.10;;;8.38;;
48215;SDS011;34005;48.844;10.098;2024-03-08T18:58:20;10.43;;;7.22;;
48215;SDS011;34005;48.844;10.098;2024-03-08T19:01:00;11.25;;;7.80;;
48215;SDS011;34005;48.844;10.098;2024-03-08T19:03:30;11.82;;;8.35;;
48215;SDS011;34005;48.844;10.098;2024-03-08T19:08:27;12.57;;;7.50;;
48215;SDS011;34005;48.844;10.098;2024-03-08T19:10:56;11.70;;;7.85;;
48215;SDS011;34005;48.844;10.098;2024-03-08T19:13:24;11.07;;;7.50;;
48215;SDS011;34005;48.844;10.098;2024-03-08T19:15:52;10.43;;;7.05;;
48215;SDS011;34005;48.844;10.098;2024-03-08T19:18:19;12.98;;;8.10;;
48215;SDS011;34005;48.844;10.098;2024-03-08T19:20:47;10.60;;;7.43;;
48215;SDS011;34005;48.844;10.098;2024-03-08T19:23:15;10.98;;;7.65;;
48215;SDS011;34005;48.844;10.098;2024-03-08T19:25:44;10.95;;;7.07;;
48215;SDS011;34005;48.844;10.098;2024-03-08T19:28:12;9.60;;;7.53;;
48215;SDS011;34005;48.844;10.098;2024-03-08T19:30:42;13.52;;;7.70;;
48215;SDS011;34005;48.844;10.098;2024-03-08T19:33:10;11.43;;;7.68;;
48215;SDS011;34005;48.844;10.098;2024-03-08T19:35:40;12.48;;;8.23;;
48215;SDS011;34005;48.844;10.098;2024-03-08T19:38:09;11.27;;;7.40;;
48215;SDS011;34005;48.844;10.098;2024-03-08T19:40:38;11.52;;;7.57;;
48215;SDS011;34005;48.844;10.098;2024-03-08T19:43:09;10.68;;;6.93;;
48215;SDS011;34005;48.844;10.098;2024-03-08T19:48:09;9.60;;;6.32;;
48215;SDS011;34005;48.844;10.098;2024-03-08T19:50:43;9.60;;;6.35;;
48215;SDS011;34005;48.844;10.098;2024-03-08T19:53:12;12.02;;;8.35;;
48215;SDS011;34005;48.844;10.098;2024-03-08T19:55:43;10.38;;;7.03;;